Time;durP1;ratioP1;P1;durP2;ratioP2;P2;SDS_P1;SDS_P2;PMS_P1;PMS_P2;Temp;Humidity;BMP_temperature;BMP_pressure;BME280_temperature;BME280_humidity;BME280_pressure;Samples;Min_cycle;Max_cycle;Signal;HPM_P1;HPM_P2
2023/10/16 00:01:19;;;;;;;5.13;2.20;;;12.80;99.90;;;;;;5114147;28;20024;-66
2023/10/16 00:03:44;;;;;;;3.20;1.80;;;12.80;99.90;;;;;;5114202;28;20019;-66
2023/10/16 00:06:11;;;;;;;3.78;1.70;;;12.70;99.90;;;;;;5114399;28;20028;-66
2023/10/16 00:08:46;;;;;;;3.55;1.50;;;12.60;99.90;;;;;;5113810;28;20038;-67
2023/10/16 00:11:13;;;;;;;3.05;1.70;;;12.60;99.90;;;;;;5112840;28;20520;-66
2023/10/16 00:13:39;;;;;;;2.28;1.52;;;12.50;99.90;;;;;;5113963;28;20447;-66
2023/10/16 00:16:05;;;;;;;3.85;1.90;;;12.50;99.90;;;;;;5113721;28;20047;-67
2023/10/16 00:18:34;;;;;;;3.75;1.80;;;12.50;99.90;;;;;;5113829;28;20024;-66
2023/10/16 00:21:04;;;;;;;4.80;1.60;;;12.40;99.90;;;;;;5113788;28;20050;-67
2023/10/16 00:23:30;;;;;;;3.15;1.70;;;12.50;99.90;;;;;;5113610;28;20035;-67
2023/10/16 00:25:58;;;;;;;3.03;1.65;;;12.50;99.90;;;;;;5113180;28;20032;-67
2023/10/16 00:28:24;;;;;;;2.55;1.70;;;12.40;99.90;;;;;;5113396;28;20052;-67
2023/10/16 00:30:51;;;;;;;2.50;1.60;;;12.40;99.90;;;;;;5113433;28;20028;-67
2023/10/16 00:33:18;;;;;;;3.45;1.60;;;12.40;99.90;;;;;;5114038;28;20026;-67
2023/10/16 00:35:53;;;;;;;3.22;1.60;;;12.40;99.90;;;;;;5113543;28;20039;-66
2023/10/16 00:38:22;;;;;;;4.70;1.90;;;12.50;99.90;;;;;;5113390;28;20023;-66
2023/10/16 00:43:33;;;;;;;4.07;1.67;;;13.00;99.90;;;;;;5113327;28;20482;-66
2023/10/16 00:46:06;;;;;;;2.85;1.60;;;13.10;99.90;;;;;;5113727;28;20030;-67
2023/10/16 00:48:36;;;;;;;4.60;1.52;;;13.10;99.90;;;;;;5112900;28;20032;-66
2023/10/16 00:51:24;;;;;;;4.88;1.80;;;13.30;99.90;;;;;;5112788;28;20109;-67
2023/10/16 00:53:49;;;;;;;2.63;1.55;;;13.30;99.90;;;;;;5112683;28;20031;-66
2023/10/16 00:56:15;;;;;;;3.45;1.52;;;13.30;99.90;;;;;;5113146;28;20102;-66
2023/10/16 00:58:45;;;;;;;3.55;1.83;;;13.30;99.90;;;;;;5113018;28;20461;-66
2023/10/16 01:01:14;;;;;;;5.22;1.58;;;13.20;99.90;;;;;;5112822;28;20035;-66
2023/10/16 01:03:42;;;;;;;5.30;1.92;;;13.20;99.90;;;;;;5112871;28;20028;-67
2023/10/16 01:06:24;;;;;;;3.10;1.67;;;13.20;99.90;;;;;;5112956;28;20036;-67
2023/10/16 01:08:50;;;;;;;4.13;1.85;;;13.20;99.90;;;;;;5112502;28;20032;-67
2023/10/16 01:11:20;;;;;;;3.63;1.83;;;13.00;99.90;;;;;;5112682;28;20027;-67
2023/10/16 01:13:47;;;;;;;3.58;1.80;;;12.80;99.90;;;;;;5112973;28;20031;-67
2023/10/16 01:16:19;;;;;;;5.00;1.90;;;12.70;99.90;;;;;;5112404;28;20032;-66
2023/10/16 01:18:45;;;;;;;2.67;1.65;;;12.50;99.90;;;;;;5112584;28;20027;-66
2023/10/16 01:21:14;;;;;;;3.65;1.75;;;12.50;99.90;;;;;;5112222;28;20059;-67
2023/10/16 01:23:41;;;;;;;4.72;1.98;;;12.40;99.90;;;;;;5111403;28;20038;-67
2023/10/16 01:26:08;;;;;;;3.05;1.67;;;12.40;99.90;;;;;;5112215;28;20036;-67
2023/10/16 01:28:33;;;;;;;3.53;1.80;;;12.40;99.90;;;;;;5112100;28;20055;-66
2023/10/16 01:31:00;;;;;;;4.40;1.70;;;12.30;99.90;;;;;;5112406;28;20027;-66
2023/10/16 01:33:27;;;;;;;3.28;1.60;;;12.30;99.90;;;;;;5112747;28;20494;-67
2023/10/16 01:35:52;;;;;;;3.05;1.75;;;12.20;99.90;;;;;;5112259;28;20513;-66
2023/10/16 01:38:18;;;;;;;2.47;1.70;;;12.20;99.90;;;;;;5111941;28;20028;-66
2023/10/16 01:40:47;;;;;;;3.40;1.67;;;12.20;99.90;;;;;;5093941;28;20070;-67
2023/10/16 01:43:14;;;;;;;4.45;1.60;;;12.10;99.90;;;;;;5112655;28;20094;-67
2023/10/16 01:45:49;;;;;;;3.25;1.70;;;12.10;99.90;;;;;;5111847;28;20035;-66
2023/10/16 01:48:21;;;;;;;1.65;1.30;;;12.10;99.90;;;;;;5112163;28;20018;-67
2023/10/16 01:50:49;;;;;;;2.47;1.60;;;12.00;99.90;;;;;;5112061;28;20027;-67
2023/10/16 01:53:25;;;;;;;2.83;1.60;;;12.00;99.90;;;;;;5112157;28;20091;-67
2023/10/16 01:55:54;;;;;;;3.88;1.63;;;11.90;99.90;;;;;;5112042;28;20024;-66
2023/10/16 01:58:30;;;;;;;2.83;1.50;;;11.80;99.90;;;;;;5111954;28;20023;-67
2023/10/16 02:00:56;;;;;;;5.60;1.70;;;11.80;99.90;;;;;;5111992;28;20102;-67
2023/10/16 02:03:25;;;;;;;3.67;1.65;;;11.80;99.90;;;;;;5111678;28;20448;-67
2023/10/16 02:05:51;;;;;;;4.20;1.75;;;11.70;99.90;;;;;;5111872;28;20076;-67
2023/10/16 02:08:20;;;;;;;4.28;1.75;;;11.70;99.90;;;;;;5111887;28;20028;-67
2023/10/16 02:10:46;;;;;;;2.78;1.80;;;11.70;99.90;;;;;;5111774;28;20050;-67
2023/10/16 02:13:12;;;;;;;3.65;1.70;;;11.60;99.90;;;;;;5111414;28;20382;-67
2023/10/16 02:15:38;;;;;;;3.78;1.70;;;11.60;99.90;;;;;;5111677;28;20059;-66
2023/10/16 02:18:18;;;;;;;2.55;1.40;;;11.70;99.90;;;;;;5111771;28;20441;-66
2023/10/16 02:20:49;;;;;;;3.50;1.70;;;11.90;99.90;;;;;;5111200;28;20478;-67
2023/10/16 02:23:15;;;;;;;3.60;1.55;;;12.00;99.90;;;;;;5112192;28;20090;-66
2023/10/16 02:25:41;;;;;;;3.13;1.63;;;12.20;99.90;;;;;;5111390;28;20520;-66
2023/10/16 02:28:08;;;;;;;3.42;1.75;;;12.30;99.90;;;;;;5111346;28;20510;-67
2023/10/16 02:30:41;;;;;;;2.67;1.40;;;12.20;99.90;;;;;;5111504;28;20075;-66
2023/10/16 02:33:12;;;;;;;3.17;1.80;;;12.10;99.90;;;;;;5114071;28;20486;-67
2023/10/16 02:35:42;;;;;;;3.13;1.70;;;12.10;99.90;;;;;;5117969;28;20114;-66
2023/10/16 02:38:13;;;;;;;3.25;1.75;;;12.20;99.90;;;;;;5118358;28;20394;-67
2023/10/16 02:40:41;;;;;;;2.97;1.75;;;12.20;99.90;;;;;;5118303;27;20039;-67
2023/10/16 02:43:13;;;;;;;3.28;1.67;;;12.20;99.90;;;;;;5118448;28;20027;-67
2023/10/16 02:45:42;;;;;;;3.25;1.67;;;12.20;99.90;;;;;;5118365;28;20028;-67
2023/10/16 02:48:11;;;;;;;2.33;1.50;;;12.00;99.90;;;;;;5118234;28;20103;-66
2023/10/16 02:50:37;;;;;;;5.47;1.60;;;11.90;99.90;;;;;;5117892;28;20044;-66
2023/10/16 02:53:06;;;;;;;4.80;1.63;;;11.70;99.90;;;;;;5118196;28;20028;-67
2023/10/16 02:55:32;;;;;;;3.72;1.95;;;11.50;99.90;;;;;;5118097;28;20052;-66
2023/10/16 02:58:04;;;;;;;3.25;1.65;;;11.40;99.90;;;;;;5118217;28;20375;-66
2023/10/16 03:00:38;;;;;;;3.20;1.85;;;11.30;99.90;;;;;;5118361;28;20038;-67
2023/10/16 03:03:06;;;;;;;3.20;1.58;;;11.30;99.90;;;;;;5118106;28;20032;-67
2023/10/16 03:05:32;;;;;;;2.58;1.58;;;11.20;99.90;;;;;;5117773;28;20028;-67
2023/10/16 03:07:58;;;;;;;2.67;1.60;;;11.20;99.90;;;;;;5118168;28;20160;-67
2023/10/16 03:10:26;;;;;;;3.63;1.60;;;11.20;99.90;;;;;;5117960;28;20446;-66
2023/10/16 03:12:52;;;;;;;3.15;1.70;;;11.20;99.90;;;;;;5117887;28;20022;-67
2023/10/16 03:15:28;;;;;;;2.85;1.50;;;11.10;99.90;;;;;;5118410;28;20501;-67
2023/10/16 03:17:54;;;;;;;3.05;1.70;;;11.00;99.90;;;;;;5117818;27;20077;-67
2023/10/16 03:20:28;;;;;;;2.70;1.60;;;11.00;99.90;;;;;;5117519;28;20024;-66
2023/10/16 03:22:54;;;;;;;;;;;11.00;99.90;;;;;;5118036;28;20102;-66
2023/10/16 03:25:50;;;;;;;1.98;1.30;;;11.00;99.90;;;;;;5117691;28;20413;-67
2023/10/16 03:28:13;;;;;;;3.20;1.50;;;11.10;99.90;;;;;;5117441;27;20035;-67
2023/10/16 03:30:42;;;;;;;3.20;1.50;;;11.00;99.90;;;;;;5117525;28;20498;-66
2023/10/16 03:33:08;;;;;;;3.03;1.65;;;11.00;99.90;;;;;;5117818;28;20027;-66
2023/10/16 03:35:38;;;;;;;2.30;1.50;;;10.90;99.90;;;;;;5117924;28;20031;-67
2023/10/16 03:38:11;;;;;;;3.17;1.63;;;10.80;99.90;;;;;;5117851;28;20024;-66
2023/10/16 03:40:37;;;;;;;4.45;1.50;;;10.80;99.90;;;;;;5117854;28;20398;-67
2023/10/16 03:43:03;;;;;;;3.13;1.42;;;10.90;99.90;;;;;;5117661;28;20513;-67
2023/10/16 03:45:28;;;;;;;4.78;1.50;;;10.80;99.90;;;;;;5113872;28;20027;-67
2023/10/16 03:48:00;;;;;;;3.50;1.40;;;10.80;99.90;;;;;;5114066;28;20031;-67
2023/10/16 03:50:34;;;;;;;2.20;1.30;;;10.80;99.90;;;;;;5114612;28;20116;-67
2023/10/16 03:53:01;;;;;;;2.90;1.50;;;10.70;99.90;;;;;;5114339;28;20047;-66
2023/10/16 03:55:27;;;;;;;4.10;1.60;;;10.70;99.90;;;;;;5114385;28;20027;-66
2023/10/16 03:57:57;;;;;;;3.08;1.50;;;10.60;99.90;;;;;;5114384;28;20447;-67
2023/10/16 04:00:26;;;;;;;2.65;1.50;;;10.90;99.90;;;;;;5114507;28;20103;-67
2023/10/16 04:02:53;;;;;;;5.75;1.40;;;11.10;99.90;;;;;;5113874;28;20070;-66
2023/10/16 04:05:33;;;;;;;3.13;1.17;;;11.20;99.90;;;;;;5114329;28;20416;-66
2023/10/16 04:07:59;;;;;;;6.40;1.90;;;11.30;99.90;;;;;;5113893;28;20178;-66
2023/10/16 04:10:28;;;;;;;2.05;1.40;;;11.40;99.90;;;;;;5114355;28;20465;-66
2023/10/16 04:12:57;;;;;;;3.63;1.50;;;11.40;99.90;;;;;;5095684;28;20069;-67
2023/10/16 04:15:50;;;;;;;3.67;1.52;;;11.60;99.90;;;;;;5114078;28;20028;-66
2023/10/16 04:20:56;;;;;;;3.67;1.65;;;11.70;99.90;;;;;;5113594;28;20036;-66
2023/10/16 04:23:52;;;;;;;5.40;1.75;;;11.60;99.90;;;;;;5113788;28;20024;-66
2023/10/16 04:31:57;;;;;;;3.83;1.70;;;11.30;99.90;;;;;;5092913;28;20032;-67
2023/10/16 05:06:14;;;;;;;69.95;21.90;;;10.60;99.90;;;;;;5092648;28;20024;-66
2023/10/16 05:08:59;;;;;;;73.85;24.08;;;10.60;99.90;;;;;;5092438;28;20055;-66
2023/10/16 06:16:20;;;;;;;;;;;10.50;99.90;;;;;;5112640;28;20042;-67
2023/10/16 06:18:48;;;;;;;53.47;22.73;;;10.30;99.90;;;;;;5111637;28;20272;-67
2023/10/16 06:21:16;;;;;;;46.25;19.40;;;10.30;99.90;;;;;;5111588;28;20027;-67
2023/10/16 06:23:43;;;;;;;42.13;13.45;;;10.30;99.90;;;;;;5111536;28;20027;-66
2023/10/16 06:26:09;;;;;;;36.55;12.48;;;10.20;99.90;;;;;;5111876;28;20020;-67
2023/10/16 06:28:39;;;;;;;27.50;12.50;;;10.10;99.90;;;;;;5111056;28;20043;-67
2023/10/16 06:31:05;;;;;;;26.63;9.43;;;10.10;99.90;;;;;;5111626;28;20367;-67
2023/10/16 06:33:31;;;;;;;24.85;8.40;;;10.10;99.90;;;;;;5111533;28;20024;-67
2023/10/16 06:35:57;;;;;;;22.55;7.00;;;10.00;99.90;;;;;;5111605;28;20032;-67
2023/10/16 06:38:24;;;;;;;19.70;8.27;;;10.00;99.90;;;;;;5111849;28;20466;-67
2023/10/16 06:40:56;;;;;;;19.63;6.45;;;10.00;99.90;;;;;;5111274;28;20023;-67
2023/10/16 06:43:25;;;;;;;15.93;6.30;;;9.90;99.90;;;;;;5111158;28;20032;-67
2023/10/16 06:46:09;;;;;;;16.90;7.30;;;10.00;99.90;;;;;;5111450;28;20031;-66
2023/10/16 06:48:37;;;;;;;17.67;7.73;;;9.80;99.90;;;;;;5111348;28;20405;-67
2023/10/16 06:51:04;;;;;;;19.75;8.50;;;9.90;99.90;;;;;;5111483;28;20035;-66
2023/10/16 06:53:30;;;;;;;24.70;7.65;;;9.90;99.90;;;;;;5111303;28;20103;-66
2023/10/16 06:55:56;;;;;;;24.00;8.43;;;9.80;99.90;;;;;;5111012;28;20391;-65
2023/10/16 06:58:22;;;;;;;39.15;11.68;;;9.80;99.90;;;;;;5111652;28;20104;-67
2023/10/16 07:00:49;;;;;;;56.85;17.60;;;9.80;99.90;;;;;;5111263;28;20038;-67
2023/10/16 07:03:16;;;;;;;88.78;28.00;;;9.90;99.90;;;;;;5111269;28;20100;-67
2023/10/16 07:05:44;;;;;;;112.40;33.40;;;9.90;99.90;;;;;;5111722;28;20032;-66
2023/10/16 07:08:19;;;;;;;111.55;36.55;;;9.80;99.90;;;;;;5111160;28;20028;-66
2023/10/16 07:10:49;;;;;;;105.53;33.40;;;9.90;99.90;;;;;;5110821;28;20052;-66
2023/10/16 07:13:29;;;;;;;100.07;32.72;;;10.00;99.90;;;;;;5110807;28;20076;-65
2023/10/16 07:15:59;;;;;;;84.35;33.97;;;9.90;99.90;;;;;;5110823;28;20028;-67
2023/10/16 07:18:26;;;;;;;73.13;29.75;;;9.90;99.90;;;;;;5109907;28;20024;-67
2023/10/16 07:23:34;;;;;;;40.63;17.85;;;9.90;99.90;;;;;;5114658;28;20114;-67
2023/10/16 07:26:10;;;;;;;24.23;10.65;;;9.90;99.90;;;;;;5114632;28;20016;-66
2023/10/16 07:28:38;;;;;;;20.10;9.05;;;10.10;99.90;;;;;;5115203;28;20540;-66
2023/10/16 07:31:05;;;;;;;20.05;8.77;;;10.40;99.90;;;;;;5114486;28;20118;-67
2023/10/16 07:33:31;;;;;;;24.40;9.40;;;10.70;99.90;;;;;;5114800;28;20047;-66
2023/10/16 07:36:01;;;;;;;34.13;11.65;;;10.90;99.90;;;;;;5114799;28;20123;-67
2023/10/16 07:38:28;;;;;;;44.95;15.23;;;10.90;99.90;;;;;;5114723;28;20433;-66
2023/10/16 07:41:00;;;;;;;48.88;19.20;;;11.10;99.90;;;;;;5114235;28;20016;-66
2023/10/16 07:43:33;;;;;;;49.45;24.02;;;11.20;99.90;;;;;;5114541;28;20032;-67
2023/10/16 07:46:16;;;;;;;56.63;27.23;;;11.30;99.90;;;;;;5114869;28;20024;-66
2023/10/16 07:48:52;;;;;;;73.25;36.00;;;11.40;99.90;;;;;;5114201;28;20442;-67
2023/10/16 07:51:25;;;;;;;85.25;39.85;;;11.50;99.90;;;;;;5114392;28;20039;-67
2023/10/16 07:53:51;;;;;;;102.43;46.42;;;11.50;99.90;;;;;;5114808;28;20482;-67
2023/10/16 07:56:19;;;;;;;110.88;50.70;;;11.60;99.90;;;;;;5114060;28;20193;-66
2023/10/16 07:59:08;;;;;;;143.88;60.65;;;11.60;99.90;;;;;;5114199;28;20031;-66
2023/10/16 08:01:43;;;;;;;161.18;64.53;;;11.50;99.90;;;;;;5113891;28;20081;-67
2023/10/16 08:04:19;;;;;;;157.65;64.22;;;11.50;99.90;;;;;;5114212;28;20039;-67
2023/10/16 08:06:46;;;;;;;164.40;52.05;;;11.40;99.90;;;;;;5113982;28;20073;-67
2023/10/16 08:11:57;;;;;;;113.00;45.13;;;11.40;99.90;;;;;;5114069;28;20111;-67
2023/10/16 08:14:27;;;;;;;91.75;36.15;;;11.50;99.90;;;;;;5114005;28;20020;-67
2023/10/16 08:17:05;;;;;;;70.75;28.88;;;11.50;99.90;;;;;;5113945;28;20031;-67
2023/10/16 08:19:34;;;;;;;51.25;20.67;;;11.60;99.90;;;;;;5113797;28;20072;-66
2023/10/16 08:22:07;;;;;;;38.45;16.38;;;11.70;99.90;;;;;;5114051;28;20114;-67
2023/10/16 08:24:34;;;;;;;31.63;12.70;;;11.80;99.90;;;;;;5113333;28;20105;-67
2023/10/16 08:30:17;;;;;;;13.35;5.45;;;11.90;99.90;;;;;;5050548;28;20491;-67
2023/10/16 08:32:53;;;;;;;8.15;3.10;;;12.00;99.90;;;;;;5050436;28;20041;-66
2023/10/16 08:35:19;;;;;;;6.97;2.83;;;12.10;99.90;;;;;;5050805;28;20031;-67
2023/10/16 08:37:56;;;;;;;7.32;2.67;;;12.20;99.90;;;;;;5050535;28;20029;-67
2023/10/16 08:40:32;;;;;;;3.97;1.85;;;12.20;99.90;;;;;;5050535;28;20041;-67
2023/10/16 08:43:00;;;;;;;5.97;1.77;;;12.40;99.90;;;;;;5050494;28;20036;-66
2023/10/16 08:45:32;;;;;;;6.05;1.75;;;12.40;99.90;;;;;;5050309;28;20056;-67
2023/10/16 08:47:58;;;;;;;4.32;2.13;;;12.50;99.90;;;;;;5050456;28;20100;-66
2023/10/16 08:50:40;;;;;;;5.60;1.85;;;12.60;99.90;;;;;;5050171;28;20045;-66
2023/10/16 08:53:09;;;;;;;3.45;1.70;;;12.70;99.90;;;;;;5050312;28;20040;-66
2023/10/16 08:55:35;;;;;;;7.97;3.85;;;12.80;99.90;;;;;;5050416;28;20029;-65
2023/10/16 08:58:04;;;;;;;7.25;3.85;;;12.90;99.90;;;;;;5050462;28;20025;-66
2023/10/16 09:00:31;;;;;;;13.82;7.18;;;13.30;99.90;;;;;;5050561;28;20547;-65
2023/10/16 09:03:00;;;;;;;8.80;3.50;;;13.70;99.90;;;;;;5050099;28;20029;-65
2023/10/16 09:05:26;;;;;;;9.48;3.80;;;13.80;99.90;;;;;;5077513;28;20059;-66
2023/10/16 09:07:52;;;;;;;12.07;3.38;;;13.90;99.90;;;;;;5112516;28;20059;-65
2023/10/16 09:10:21;;;;;;;9.68;3.03;;;14.10;99.90;;;;;;5113167;28;20032;-65
2023/10/16 09:13:13;;;;;;;6.18;2.38;;;14.20;99.90;;;;;;5112932;28;20102;-65
2023/10/16 09:15:45;;;;;;;9.45;3.10;;;14.40;99.90;;;;;;5112774;28;20104;-65
2023/10/16 09:18:21;;;;;;;14.90;6.00;;;14.70;99.90;;;;;;5112748;28;20080;-65
2023/10/16 09:20:49;;;;;;;61.55;26.35;;;15.00;99.90;;;;;;5112993;28;20019;-65
2023/10/16 09:23:15;;;;;;;47.80;27.35;;;15.20;99.90;;;;;;5112327;28;20032;-65
2023/10/16 09:25:47;;;;;;;34.20;13.93;;;15.40;99.90;;;;;;5112455;28;20088;-65
2023/10/16 09:28:22;;;;;;;14.95;6.65;;;15.60;99.90;;;;;;5112800;28;20589;-65
2023/10/16 09:30:49;;;;;;;9.43;4.03;;;15.70;99.90;;;;;;5112351;28;20063;-65
2023/10/16 09:33:15;;;;;;;12.38;5.05;;;15.80;99.90;;;;;;5112380;28;20035;-65
2023/10/16 09:35:44;;;;;;;13.98;4.20;;;15.60;99.90;;;;;;5111942;28;20020;-65
2023/10/16 09:38:17;;;;;;;11.48;3.53;;;15.70;99.90;;;;;;5112320;28;20509;-65
2023/10/16 09:41:37;;;;;;;15.40;3.40;;;15.80;99.90;;;;;;5112807;28;20031;-65
2023/10/16 09:43:48;;;;;;;14.25;3.72;;;16.00;99.90;;;;;;5111260;28;20463;-65
2023/10/16 09:49:05;;;;;;;7.93;2.58;;;16.00;99.90;;;;;;5112352;28;20559;-64
2023/10/16 09:51:35;;;;;;;478.80;64.38;;;16.00;99.90;;;;;;5111673;28;20031;-65
2023/10/16 09:54:02;;;;;;;101.43;17.63;;;16.00;99.90;;;;;;5112455;28;20019;-65
2023/10/16 09:56:35;;;;;;;48.42;8.95;;;16.10;99.90;;;;;;5111962;28;20061;-65
2023/10/16 09:59:08;;;;;;;68.18;12.75;;;16.20;99.90;;;;;;5112049;28;20024;-65
2023/10/16 10:01:42;;;;;;;62.53;15.25;;;16.20;99.90;;;;;;5111925;28;20020;-65
2023/10/16 10:04:11;;;;;;;161.88;139.38;;;16.20;99.90;;;;;;5111392;28;20059;-65
2023/10/16 10:06:39;;;;;;;124.18;35.28;;;16.30;99.90;;;;;;5111681;28;20031;-64
2023/10/16 10:11:45;;;;;;;48.10;28.33;;;16.50;99.90;;;;;;5111887;28;20034;-64
2023/10/16 10:16:57;;;;;;;21.45;11.35;;;16.90;99.90;;;;;;5111434;28;20439;-62
2023/10/16 10:19:31;;;;;;;6.90;4.13;;;16.90;99.90;;;;;;5093131;28;20020;-64
2023/10/16 10:22:01;;;;;;;;;;;17.00;99.90;;;;;;5112315;28;20035;-63
2023/10/16 10:24:27;;;;;;;9.20;3.15;;;17.00;99.90;;;;;;5104598;28;19990;-65
2023/10/16 10:26:55;;;;;;;8.30;2.20;;;17.10;99.90;;;;;;5072993;28;20561;-65
2023/10/16 10:29:22;;;;;;;7.00;2.72;;;17.20;99.90;;;;;;5091054;28;20058;-64
2023/10/16 10:31:47;;;;;;;5.45;2.70;;;17.40;99.90;;;;;;5091497;28;20039;-64
2023/10/16 10:34:28;;;;;;;5.50;2.85;;;17.50;99.90;;;;;;5090503;28;20100;-65
2023/10/16 10:36:54;;;;;;;5.28;2.00;;;17.70;99.90;;;;;;5091173;28;20028;-65
2023/10/16 10:39:20;;;;;;;4.75;2.58;;;17.70;99.90;;;;;;5091064;28;20496;-65
2023/10/16 10:44:54;;;;;;;5.38;2.20;;;17.90;99.90;;;;;;5077709;28;20073;-65
2023/10/16 10:47:24;;;;;;;7.22;2.30;;;18.00;99.90;;;;;;5090636;28;20399;-64
2023/10/16 10:50:00;;;;;;;3.72;2.08;;;18.10;99.90;;;;;;5090436;28;20032;-65
2023/10/16 10:52:30;;;;;;;4.28;1.85;;;18.20;99.90;;;;;;5107767;28;20028;-63
2023/10/16 10:55:14;;;;;;;3.55;1.80;;;18.30;99.90;;;;;;5113284;28;20034;-64
2023/10/16 10:57:41;;;;;;;4.43;1.60;;;18.50;99.90;;;;;;5115062;28;20035;-64
2023/10/16 11:05:08;;;;;;;4.82;1.75;;;18.90;99.90;;;;;;5115202;28;20116;-64
2023/10/16 11:07:59;;;;;;;3.30;1.80;;;19.10;99.90;;;;;;5114567;28;20031;-64
2023/10/16 11:10:24;;;;;;;3.85;1.70;;;19.20;99.90;;;;;;5115068;28;20040;-64
2023/10/16 11:12:50;;;;;;;5.50;2.00;;;19.50;99.90;;;;;;5095831;28;20478;-64
2023/10/16 11:15:17;;;;;;;6.80;2.00;;;19.70;99.90;;;;;;5094544;28;20455;-64
2023/10/16 11:17:44;;;;;;;6.18;1.85;;;19.70;99.90;;;;;;5093961;28;20438;-64
2023/10/16 11:22:46;;;;;;;4.97;1.80;;;19.70;99.90;;;;;;5093995;28;20020;-63
2023/10/16 11:25:15;;;;;;;3.17;1.58;;;19.80;99.90;;;;;;5094539;28;20498;-63
2023/10/16 11:27:42;;;;;;;6.32;1.60;;;20.00;99.90;;;;;;5094388;28;20043;-65
2023/10/16 11:30:14;;;;;;;4.13;1.80;;;20.10;99.90;;;;;;5093914;28;20164;-65
2023/10/16 11:32:46;;;;;;;5.03;1.75;;;20.10;99.90;;;;;;5093540;28;20088;-65
2023/10/16 11:35:17;;;;;;;4.47;1.85;;;20.00;99.90;;;;;;5094035;28;20024;-65
2023/10/16 11:37:50;;;;;;;5.68;2.05;;;19.90;99.90;;;;;;5094233;28;20036;-65
2023/10/16 11:40:19;;;;;;;5.63;1.90;;;19.90;99.90;;;;;;5110249;28;20032;-65
2023/10/16 11:42:48;;;;;;;3.33;1.80;;;19.90;99.90;;;;;;5114604;28;20091;-65
2023/10/16 11:45:21;;;;;;;4.65;1.83;;;20.00;99.90;;;;;;5114326;28;20081;-64
2023/10/16 11:50:41;;;;;;;5.65;1.52;;;20.20;99.90;;;;;;5114417;28;20088;-64
2023/10/16 11:53:09;;;;;;;3.78;1.42;;;20.30;99.90;;;;;;5114435;28;20016;-64
2023/10/16 11:55:39;;;;;;;3.17;1.60;;;20.30;99.90;;;;;;5114693;28;20027;-65
2023/10/16 11:58:11;;;;;;;3.85;1.70;;;20.50;99.90;;;;;;5113513;28;20375;-63
2023/10/16 12:00:43;;;;;;;3.90;1.70;;;20.50;99.90;;;;;;5114026;28;20032;-65
2023/10/16 12:03:17;;;;;;;3.17;1.60;;;20.60;99.90;;;;;;5114605;28;20508;-64
2023/10/16 12:05:43;;;;;;;3.00;1.63;;;20.80;99.90;;;;;;5113418;28;20027;-64
2023/10/16 12:08:10;;;;;;;3.45;1.70;;;20.80;99.90;;;;;;5113749;28;20026;-65
2023/10/16 12:10:36;;;;;;;2.78;1.40;;;20.90;99.90;;;;;;5113970;28;20405;-65
2023/10/16 12:13:03;;;;;;;3.25;1.50;;;21.00;99.90;;;;;;5113808;28;20020;-67
2023/10/16 12:15:29;;;;;;;3.33;1.60;;;21.00;99.90;;;;;;5113345;28;20073;-66
2023/10/16 12:17:55;;;;;;;2.78;1.70;;;21.10;99.90;;;;;;5113847;28;20023;-66
2023/10/16 12:20:26;;;;;;;3.17;1.73;;;21.10;99.90;;;;;;5114278;28;20020;-66
2023/10/16 12:22:52;;;;;;;6.55;1.70;;;21.20;99.90;;;;;;5113870;28;20028;-66
2023/10/16 12:25:18;;;;;;;3.70;1.67;;;21.20;99.90;;;;;;5113437;28;20038;-66
2023/10/16 12:27:45;;;;;;;4.18;1.73;;;21.20;99.90;;;;;;5113325;28;20104;-65
2023/10/16 12:30:15;;;;;;;2.83;1.60;;;21.30;99.90;;;;;;5113343;28;20505;-66
2023/10/16 12:32:41;;;;;;;3.40;1.70;;;21.50;99.90;;;;;;5113715;28;20016;-65
2023/10/16 12:35:11;;;;;;;5.60;1.88;;;21.50;99.90;;;;;;5113465;28;20030;-65
2023/10/16 12:37:38;;;;;;;3.15;1.70;;;21.60;99.90;;;;;;5113500;28;20027;-65
2023/10/16 12:42:48;;;;;;;4.32;1.85;;;22.00;99.90;;;;;;5113198;28;20047;-65
2023/10/16 12:45:14;;;;;;;3.10;1.90;;;22.20;99.90;;;;;;5113105;28;20031;-65
2023/10/16 12:47:40;;;;;;;4.30;1.90;;;22.30;99.90;;;;;;5113801;28;20022;-65
2023/10/16 12:50:07;;;;;;;5.65;1.70;;;22.40;99.90;;;;;;5113062;28;20041;-66
2023/10/16 12:52:33;;;;;;;3.00;1.80;;;22.40;99.90;;;;;;5113565;28;20399;-66
2023/10/16 12:55:01;;;;;;;3.65;1.60;;;22.50;99.90;;;;;;5113245;28;20030;-64
2023/10/16 12:57:28;;;;;;;4.45;1.50;;;22.70;99.90;;;;;;5113059;28;20336;-65
2023/10/16 12:59:56;;;;;;;3.03;1.52;;;22.80;99.90;;;;;;5113204;28;20047;-64
2023/10/16 13:02:28;;;;;;;5.43;1.90;;;22.90;99.90;;;;;;5113043;28;20098;-64
2023/10/16 13:04:55;;;;;;;3.22;1.73;;;22.80;99.90;;;;;;5092584;28;20020;-64
2023/10/16 13:07:23;;;;;;;4.93;2.10;;;22.80;99.90;;;;;;5092635;28;20024;-64
2023/10/16 13:09:52;;;;;;;4.40;1.77;;;22.80;99.90;;;;;;5092313;28;20043;-64
2023/10/16 13:12:18;;;;;;;3.45;1.70;;;22.90;99.90;;;;;;5092382;28;20055;-64
2023/10/16 13:14:49;;;;;;;3.35;1.80;;;22.90;99.90;;;;;;5091960;28;20436;-64
2023/10/16 13:17:15;;;;;;;4.22;1.90;;;22.90;99.90;;;;;;5092269;28;20036;-64
2023/10/16 13:19:41;;;;;;;4.13;1.65;;;22.90;99.90;;;;;;5092539;28;20448;-65
2023/10/16 13:22:11;;;;;;;4.47;1.90;;;22.80;99.90;;;;;;5092281;28;20035;-63
2023/10/16 13:24:37;;;;;;;3.78;1.70;;;22.90;99.90;;;;;;5100451;28;20521;-64
2023/10/16 13:27:06;;;;;;;5.25;1.92;;;22.90;99.90;;;;;;5112770;28;20055;-64
2023/10/16 13:29:32;;;;;;;4.50;1.95;;;22.90;99.90;;;;;;5111829;28;20051;-65
2023/10/16 13:32:00;;;;;;;4.28;1.65;;;23.00;99.90;;;;;;5099029;28;20039;-65
2023/10/16 13:34:26;;;;;;;5.88;3.50;;;23.00;99.90;;;;;;5092010;28;20059;-63
2023/10/16 13:37:07;;;;;;;7.95;3.80;;;23.20;99.90;;;;;;5091900;28;20032;-65
2023/10/16 13:39:35;;;;;;;6.18;2.60;;;23.20;99.90;;;;;;5091746;28;20032;-65
2023/10/16 13:42:01;;;;;;;4.53;2.10;;;23.30;99.90;;;;;;5092030;28;20398;-64
2023/10/16 13:44:28;;;;;;;3.05;2.00;;;23.30;99.90;;;;;;5091807;28;20027;-67
2023/10/16 13:46:55;;;;;;;5.47;2.15;;;23.40;99.90;;;;;;5091830;28;20032;-67
2023/10/16 13:49:23;;;;;;;3.15;1.88;;;23.50;99.90;;;;;;5091668;28;20028;-67
2023/10/16 13:51:52;;;;;;;5.82;2.78;;;23.50;99.90;;;;;;5091646;28;20181;-67
2023/10/16 13:54:18;;;;;;;5.68;2.42;;;23.30;99.90;;;;;;5091720;28;20027;-67
2023/10/16 13:56:48;;;;;;;5.28;2.70;;;23.30;99.90;;;;;;5091588;28;20111;-65
2023/10/16 13:59:15;;;;;;;3.88;2.08;;;23.30;99.90;;;;;;5091637;28;20081;-65
2023/10/16 14:01:43;;;;;;;3.10;2.05;;;23.30;99.90;;;;;;5091688;28;20031;-65
2023/10/16 14:04:14;;;;;;;3.78;1.90;;;23.30;99.90;;;;;;5091517;28;20016;-65
2023/10/16 14:06:51;;;;;;;3.40;1.90;;;23.30;99.90;;;;;;5092086;28;20039;-65
2023/10/16 14:09:32;;;;;;;4.32;2.10;;;23.30;99.90;;;;;;5091158;28;20600;-65
2023/10/16 14:11:59;;;;;;;4.47;2.20;;;23.30;99.90;;;;;;5091307;28;20115;-65
2023/10/16 14:14:30;;;;;;;5.82;1.92;;;23.20;99.90;;;;;;5091631;28;20028;-65
2023/10/16 14:17:03;;;;;;;2.65;1.80;;;23.20;99.90;;;;;;5091257;28;20028;-65
2023/10/16 14:19:30;;;;;;;4.65;2.05;;;23.40;99.90;;;;;;5091350;28;20035;-65
2023/10/16 14:21:57;;;;;;;2.85;2.03;;;23.40;99.90;;;;;;5091412;28;20034;-65
2023/10/16 14:24:25;;;;;;;3.42;1.92;;;23.60;99.90;;;;;;5097084;28;20393;-65
2023/10/16 14:26:54;;;;;;;4.22;2.13;;;23.50;99.90;;;;;;5111590;28;20023;-65
2023/10/16 14:29:24;;;;;;;4.30;2.00;;;23.40;99.90;;;;;;5110933;28;20135;-62
2023/10/16 14:31:51;;;;;;;2.65;1.92;;;23.40;99.90;;;;;;5111601;28;20114;-64
2023/10/16 14:34:21;;;;;;;4.30;1.90;;;23.40;99.90;;;;;;5111633;28;20020;-64
2023/10/16 14:36:48;;;;;;;4.55;1.90;;;23.40;99.90;;;;;;5111780;28;20113;-63
2023/10/16 14:39:14;;;;;;;3.30;2.00;;;23.50;99.90;;;;;;5110690;28;20047;-63
2023/10/16 14:41:47;;;;;;;3.80;2.00;;;23.40;99.90;;;;;;5111007;28;20023;-64
2023/10/16 14:44:13;;;;;;;4.03;2.30;;;23.30;99.90;;;;;;5111381;28;20039;-64
2023/10/16 14:46:39;;;;;;;5.10;2.40;;;23.40;99.90;;;;;;5111733;28;20012;-63
2023/10/16 14:49:09;;;;;;;3.47;1.92;;;23.50;99.90;;;;;;5111190;28;20402;-64
2023/10/16 14:51:39;;;;;;;3.97;1.90;;;23.40;99.90;;;;;;5111068;28;20044;-64
2023/10/16 14:54:06;;;;;;;4.13;1.80;;;23.40;99.90;;;;;;5111008;28;20076;-64
2023/10/16 14:56:36;;;;;;;2.38;2.03;;;23.30;99.90;;;;;;5111018;28;20024;-64
2023/10/16 14:59:05;;;;;;;3.80;2.03;;;23.30;99.90;;;;;;5111115;28;20433;-64
2023/10/16 15:01:33;;;;;;;5.20;2.40;;;23.30;99.90;;;;;;5111270;28;20099;-64
2023/10/16 15:03:59;;;;;;;2.75;2.10;;;23.30;99.90;;;;;;5111830;28;20034;-64
2023/10/16 15:06:24;;;;;;;3.53;1.92;;;23.20;99.90;;;;;;5110911;28;20028;-64
2023/10/16 15:08:53;;;;;;;5.05;2.25;;;23.00;99.90;;;;;;5111079;28;20520;-64
2023/10/16 15:11:20;;;;;;;3.80;2.30;;;23.00;99.90;;;;;;5110916;28;20043;-63
2023/10/16 15:13:46;;;;;;;2.95;2.30;;;22.70;99.90;;;;;;5111458;28;20490;-63
2023/10/16 15:16:12;;;;;;;3.45;2.20;;;22.60;99.90;;;;;;5111391;28;20099;-63